Time;durP1;ratioP1;P1;durP2;ratioP2;P2;SDS_P1;SDS_P2;PMS_P1;PMS_P2;Temp;Humidity;BMP_temperature;BMP_pressure;BME280_temperature;BME280_humidity;BME280_pressure;Samples;Min_cycle;Max_cycle;Signal;HPM_P1;HPM_P2
2021/04/07 00:00:42;;;;;;;3.83;3.53;;;-1.20;99.90;;;-0.70;91.06;94729.73;638165;221;23467;-71
2021/04/07 00:05:45;;;;;;;3.37;3.03;;;-1.20;99.90;;;-0.76;92.07;94743.74;619360;226;31920;-71
2021/04/07 00:08:20;;;;;;;4.37;4.07;;;-1.20;99.90;;;-0.77;91.79;94746.07;618211;230;26865;-71
2021/04/07 00:10:44;;;;;;;4.37;3.97;;;-1.20;99.90;;;-0.91;92.04;94745.83;619813;229;25779;-71
2021/04/07 00:13:13;;;;;;;4.27;3.97;;;-1.20;99.90;;;-0.94;92.16;94753.59;618218;229;24623;-71
2021/04/07 00:15:42;;;;;;;3.60;3.30;;;-1.20;99.90;;;-0.87;92.23;94748.10;610487;229;32309;-71
2021/04/07 00:18:11;;;;;;;4.33;4.00;;;-1.20;99.90;;;-1.00;92.47;94745.06;614572;230;23530;-71
2021/04/07 00:20:40;;;;;;;3.67;3.15;;;-1.30;99.90;;;-0.94;92.58;94740.61;608931;230;33470;-72
2021/04/07 00:23:10;;;;;;;3.97;3.58;;;-1.30;99.90;;;-0.85;92.32;94741.41;608997;230;32092;-71
2021/04/07 00:25:39;;;;;;;3.63;3.33;;;-1.30;99.90;;;-0.88;92.25;94742.82;616963;229;23572;-71
2021/04/07 00:28:10;;;;;;;3.42;3.12;;;-1.20;99.90;;;-0.90;92.97;94749.19;610968;229;32456;-71
2021/04/07 00:30:37;;;;;;;3.90;3.60;;;-1.30;99.90;;;-0.89;93.03;94745.53;614284;230;23514;-72
2021/04/07 00:35:52;;;;;;;4.15;3.60;;;-1.20;99.90;;;-0.83;92.97;94747.45;646964;212;31581;-71
2021/04/07 00:38:21;;;;;;;4.10;3.80;;;-1.20;99.90;;;-0.88;93.64;94744.41;642833;220;27812;-71
2021/04/07 00:40:50;;;;;;;3.90;3.60;;;-1.20;99.90;;;-0.87;93.96;94740.97;636882;221;31753;-71
2021/04/07 00:43:19;;;;;;;3.90;3.60;;;-1.20;99.90;;;-0.86;94.65;94741.78;647416;216;31587;-71
2021/04/07 00:45:48;;;;;;;4.73;4.40;;;-1.20;99.90;;;-0.88;94.15;94748.84;642278;220;23597;-71
2021/04/07 00:48:17;;;;;;;5.28;3.70;;;-1.20;99.90;;;-0.85;93.57;94744.61;647374;216;31572;-71
2021/04/07 00:50:46;;;;;;;3.57;3.33;;;-1.20;99.90;;;-0.88;93.52;94751.13;672953;211;23404;-71
2021/04/07 00:53:18;;;;;;;6.55;3.65;;;-1.20;99.90;;;-0.93;94.03;94740.98;666176;211;31424;-71
2021/04/07 00:55:48;;;;;;;5.13;4.33;;;-1.30;99.90;;;-0.95;94.26;94743.89;667599;211;23672;-71
2021/04/07 01:00:51;;;;;;;4.65;4.00;;;-1.40;99.90;;;-0.93;93.36;94745.41;646375;212;42224;-71
2021/04/07 01:03:21;;;;;;;4.67;4.17;;;-1.40;99.90;;;-0.95;93.50;94748.68;643399;220;26832;-71
2021/04/07 01:05:50;;;;;;;4.60;3.70;;;-1.40;99.90;;;-0.97;93.57;94750.57;665128;211;31464;-71
2021/04/07 01:08:19;;;;;;;4.93;4.47;;;-1.40;99.90;;;-0.98;92.87;94750.72;669470;211;23419;-71
2021/04/07 01:10:49;;;;;;;4.37;3.97;;;-1.40;99.90;;;-0.97;93.10;94752.97;648984;216;31693;-72
2021/04/07 01:13:18;;;;;;;4.37;4.00;;;-1.40;99.90;;;-1.03;93.21;94758.33;654113;216;23972;-71
2021/04/07 01:15:47;;;;;;;4.45;3.90;;;-1.40;99.90;;;-1.07;93.47;94759.62;663788;211;31487;-71
2021/04/07 01:18:16;;;;;;;4.10;3.80;;;-1.50;99.90;;;-1.12;93.29;94753.42;655369;216;26801;-71
2021/04/07 01:20:45;;;;;;;3.90;3.60;;;-1.40;99.90;;;-1.07;92.89;94757.64;649015;216;31569;-71
2021/04/07 01:23:14;;;;;;;4.17;3.90;;;-1.40;99.90;;;-1.07;92.70;94752.81;669232;211;23415;-71
2021/04/07 01:25:43;;;;;;;3.90;3.60;;;-1.40;99.90;;;-1.05;92.38;94759.64;657188;211;31586;-71
2021/04/07 01:28:12;;;;;;;5.70;4.33;;;-1.40;99.90;;;-1.08;92.96;94755.67;641992;220;24079;-71
2021/04/07 01:30:46;;;;;;;4.40;4.00;;;-1.40;99.90;;;-1.09;93.11;94754.17;636604;220;32107;-72
2021/04/07 01:35:53;;;;;;;4.90;3.70;;;-1.30;99.90;;;-0.95;92.45;94753.10;648509;216;33581;-72
2021/04/07 01:38:22;;;;;;;5.87;5.43;;;-1.30;99.90;;;-0.92;92.50;94751.61;640007;220;24505;-71
2021/04/07 01:40:51;;;;;;;5.05;4.28;;;-1.30;99.90;;;-0.98;93.48;94753.70;634906;220;31987;-71
2021/04/07 01:43:20;;;;;;;5.13;4.40;;;-1.30;99.90;;;-1.07;94.08;94756.91;641781;221;23459;-71
2021/04/07 01:45:49;;;;;;;4.55;4.15;;;-1.40;99.90;;;-1.12;95.29;94755.06;633516;220;31785;-72
2021/04/07 01:48:18;;;;;;;4.53;4.27;;;-1.40;99.90;;;-1.17;95.42;94757.24;658219;216;24862;-71
2021/04/07 01:51:22;;;;;;;5.17;4.33;;;-1.50;99.90;;;-1.14;96.06;94761.27;647408;216;34109;-70
2021/04/07 01:53:51;;;;;;;4.90;4.50;;;-1.50;99.90;;;-1.17;95.84;94760.95;635854;221;31830;-71
2021/04/07 01:56:20;;;;;;;6.78;4.47;;;-1.50;99.90;;;-1.11;95.70;94760.10;635785;221;42417;-71
2021/04/07 01:58:49;;;;;;;5.40;4.90;;;-1.60;99.90;;;-1.17;95.81;94758.36;643257;221;24500;-72
2021/04/07 02:01:18;;;;;;;4.00;3.70;;;-1.60;99.90;;;-1.18;95.63;94760.58;636483;221;32182;-71
2021/04/07 02:03:47;;;;;;;4.47;4.07;;;-1.60;99.90;;;-1.31;95.08;94754.55;635696;220;31933;-71
2021/04/07 02:06:16;;;;;;;5.57;5.07;;;-1.60;99.90;;;-1.22;94.55;94762.77;638504;221;23518;-71
2021/04/07 02:08:45;;;;;;;4.62;4.10;;;-1.50;99.90;;;-1.17;94.14;94762.72;636895;221;31854;-71
2021/04/07 02:11:15;;;;;;;5.90;5.40;;;-1.50;99.90;;;-1.18;93.93;94760.47;639132;221;23468;-71
2021/04/07 02:13:44;;;;;;;4.47;4.05;;;-1.50;99.90;;;-1.13;94.03;94758.19;636337;221;31747;-71
2021/04/07 02:16:13;;;;;;;4.10;3.80;;;-1.60;99.90;;;-1.09;93.44;94764.59;634212;221;31829;-71
2021/04/07 02:18:42;;;;;;;4.83;4.40;;;-1.50;99.90;;;-1.08;92.64;94759.55;641032;220;24508;-71
2021/04/07 02:21:11;;;;;;;5.07;4.00;;;-1.50;99.90;;;-1.08;92.80;94762.27;633117;220;32571;-71
2021/04/07 02:23:40;;;;;;;4.67;4.10;;;-1.50;99.90;;;-1.10;92.93;94763.41;657072;216;23429;-71
2021/04/07 02:26:09;;;;;;;4.80;4.40;;;-1.50;99.90;;;-1.14;92.54;94764.83;663373;211;31498;-71
2021/04/07 02:28:38;;;;;;;4.43;4.03;;;-1.50;99.90;;;-1.04;92.18;94766.99;662229;211;31615;-71
2021/04/07 02:31:07;;;;;;;4.85;4.45;;;-1.50;99.90;;;-1.04;91.71;94768.05;661132;211;31982;-71
2021/04/07 02:35:51;;;;;;;4.40;4.00;;;-1.50;99.90;;;-1.10;91.69;94767.67;648233;212;32183;-71
2021/04/07 02:38:21;;;;;;;4.53;4.00;;;-1.40;99.90;;;-1.10;91.56;94771.45;635509;220;31871;-71
2021/04/07 02:40:50;;;;;;;5.13;4.23;;;-1.40;99.90;;;-1.07;90.38;94774.94;641103;221;23466;-71
2021/04/07 02:43:19;;;;;;;4.82;4.43;;;-1.30;99.90;;;-1.06;90.47;94771.55;637479;220;31772;-71
2021/04/07 02:45:48;;;;;;;4.63;4.23;;;-1.30;99.90;;;-0.94;89.95;94775.94;642907;220;23471;-71
2021/04/07 02:48:17;;;;;;;3.85;3.50;;;-1.30;99.90;;;-0.96;89.23;94773.47;634184;220;31757;-71
2021/04/07 02:50:46;;;;;;;4.60;4.20;;;-1.30;99.90;;;-0.92;88.89;94787.64;634845;221;31800;-71
2021/04/07 02:53:15;;;;;;;5.33;4.40;;;-1.30;99.90;;;-0.85;88.99;94784.05;638201;221;23473;-71
2021/04/07 02:55:44;;;;;;;4.30;3.87;;;-1.30;99.90;;;-0.87;89.41;94786.41;634521;220;31763;-70
2021/04/07 03:00:48;;;;;;;4.62;4.22;;;-1.40;99.90;;;-0.95;90.38;94780.17;647582;216;31583;-71
2021/04/07 03:03:17;;;;;;;3.97;3.67;;;-1.40;99.90;;;-0.97;89.95;94783.23;640896;221;23528;-71
2021/04/07 03:05:46;;;;;;;4.30;3.60;;;-1.40;99.90;;;-1.00;89.93;94786.02;635052;221;32460;-71
2021/04/07 03:08:15;;;;;;;4.30;3.70;;;-1.40;99.90;;;-1.08;90.13;94781.99;634544;221;31748;-71
2021/04/07 03:10:44;;;;;;;6.30;3.57;;;-1.50;99.90;;;-1.15;90.41;94792.67;641208;221;23488;-71
2021/04/07 03:13:13;;;;;;;4.80;4.30;;;-1.50;99.90;;;-1.19;91.68;94791.03;633645;221;31992;-71
2021/04/07 03:15:42;;;;;;;4.18;3.78;;;-1.60;99.90;;;-1.15;91.99;94790.77;634792;221;31913;-71
2021/04/07 03:18:11;;;;;;;4.03;3.73;;;-1.70;99.90;;;-1.31;92.61;94798.52;652578;216;23528;-71
2021/04/07 03:20:40;;;;;;;4.90;3.45;;;-1.70;99.90;;;-1.38;93.59;94796.47;649699;216;31587;-71
2021/04/07 03:23:09;;;;;;;4.30;4.00;;;-1.70;99.90;;;-1.32;93.65;94799.41;667767;211;24497;-71
2021/04/07 03:25:38;;;;;;;5.03;3.60;;;-1.80;99.90;;;-1.32;93.91;94798.61;642512;216;32270;-71
2021/04/07 03:28:07;;;;;;;5.23;4.73;;;-1.80;99.90;;;-1.40;94.26;94806.11;642542;220;23504;-72
2021/04/07 03:35:51;;;;;;;4.40;4.00;;;-1.90;99.90;;;-1.44;94.71;94816.90;647113;216;31666;-71
2021/04/07 03:38:20;;;;;;;4.47;4.10;;;-1.80;99.90;;;-1.42;94.50;94825.42;633372;220;31783;-71
2021/04/07 03:40:50;;;;;;;4.27;3.90;;;-1.90;99.90;;;-1.55;94.57;94826.51;639542;221;23486;-71
2021/04/07 03:43:19;;;;;;;4.43;4.03;;;-2.00;99.90;;;-1.56;94.88;94827.81;635000;220;32366;-71
2021/04/07 03:45:48;;;;;;;4.40;4.00;;;-2.00;99.90;;;-1.57;94.63;94832.42;635852;221;31774;-71
2021/04/07 03:48:17;;;;;;;6.57;4.57;;;-2.00;99.90;;;-1.64;94.61;94833.17;640894;220;23518;-71
2021/04/07 03:50:46;;;;;;;4.10;3.80;;;-2.00;99.90;;;-1.58;94.23;94832.95;634172;221;31951;-71
2021/04/07 03:53:15;;;;;;;3.87;3.60;;;-2.00;99.90;;;-1.53;94.21;94838.92;640491;220;23466;-72
2021/04/07 03:55:47;;;;;;;4.10;3.70;;;-1.90;99.90;;;-1.41;93.35;94844.00;633180;221;31789;-71
2021/04/07 03:58:16;;;;;;;4.18;3.87;;;-1.80;99.90;;;-1.28;92.38;94846.81;634147;220;42440;-71
2021/04/07 04:00:45;;;;;;;4.63;4.23;;;-1.70;99.90;;;-1.25;91.49;94843.13;641096;221;23484;-71
2021/04/07 04:03:14;;;;;;;3.60;3.30;;;-1.60;99.90;;;-1.07;90.71;94853.06;636854;220;31765;-71
2021/04/07 04:05:43;;;;;;;4.10;3.70;;;-1.60;99.90;;;-1.07;90.17;94851.00;637279;221;42406;-71
2021/04/07 04:08:12;;;;;;;4.40;4.10;;;-1.60;99.90;;;-1.09;90.00;94858.73;640964;220;24254;-71
2021/04/07 04:10:41;;;;;;;4.70;3.60;;;-1.50;99.90;;;-1.02;89.86;94865.09;631722;221;42532;-71
2021/04/07 04:13:10;;;;;;;4.20;3.90;;;-1.50;99.90;;;-1.00;88.88;94862.78;641383;221;27645;-71
2021/04/07 04:15:39;;;;;;;4.22;3.83;;;-1.50;99.90;;;-0.87;88.59;94869.03;634490;221;31766;-72
2021/04/07 04:18:09;;;;;;;4.77;4.40;;;-1.40;99.90;;;-0.88;88.60;94874.19;639730;220;23474;-71
2021/04/07 04:20:38;;;;;;;3.90;3.50;;;-1.40;99.90;;;-0.87;89.34;94874.62;634562;220;31782;-72
2021/04/07 04:23:07;;;;;;;4.97;4.57;;;-1.40;99.90;;;-0.88;89.73;94880.26;639226;220;23448;-71
2021/04/07 04:25:36;;;;;;;4.30;4.00;;;-1.40;99.90;;;-0.84;90.80;94884.08;628669;221;42673;-71
2021/04/07 04:28:05;;;;;;;4.07;3.77;;;-1.50;99.90;;;-0.96;91.70;94890.13;634112;224;23489;-71
2021/04/07 04:30:34;;;;;;;5.03;4.62;;;-1.50;99.90;;;-0.99;93.63;94896.52;625344;225;31900;-71
2021/04/07 04:35:50;;;;;;;5.70;5.10;;;-1.80;99.90;;;-1.22;98.54;94899.65;645041;216;31571;-71
2021/04/07 04:38:20;;;;;;;5.03;4.63;;;-1.80;99.90;;;-1.23;99.48;94904.09;644111;221;23479;-71
2021/04/07 04:40:49;;;;;;;5.57;5.18;;;-1.90;99.90;;;-1.25;100.00;94909.02;632770;221;43504;-71
2021/04/07 04:43:18;;;;;;;5.80;5.30;;;-1.90;99.90;;;-1.26;100.00;94912.24;656614;215;23436;-71
2021/04/07 04:45:47;;;;;;;5.20;4.80;;;-1.90;99.90;;;-1.23;99.95;94913.88;642556;220;31866;-72
2021/04/07 04:48:16;;;;;;;6.10;5.57;;;-1.80;99.90;;;-1.17;99.23;94917.30;664828;211;31422;-71
2021/04/07 04:50:45;;;;;;;5.77;5.17;;;-1.80;99.90;;;-1.18;98.57;94929.48;671707;211;23477;-71
2021/04/07 04:53:14;;;;;;;5.65;5.15;;;-1.80;99.90;;;-1.07;98.09;94927.06;661674;211;42231;-71
2021/04/07 04:55:43;;;;;;;5.50;5.00;;;-1.80;99.90;;;-1.13;97.45;94934.23;662841;211;31461;-72
2021/04/07 04:58:12;;;;;;;5.78;5.28;;;-1.80;99.90;;;-1.17;97.15;94937.78;661382;211;31473;-71
2021/04/07 05:00:41;;;;;;;5.60;5.10;;;-1.70;99.90;;;-1.21;96.63;94941.34;668309;211;23415;-71
2021/04/07 05:03:10;;;;;;;5.32;4.93;;;-1.70;99.90;;;-1.11;95.89;94947.58;649771;216;42308;-71
2021/04/07 05:05:40;;;;;;;4.70;4.30;;;-1.70;99.90;;;-1.14;95.54;94948.00;655489;216;23440;-71
2021/04/07 05:08:08;;;;;;;5.83;5.27;;;-1.70;99.90;;;-1.12;95.44;94954.66;669842;211;24415;-71
2021/04/07 05:10:37;;;;;;;5.00;4.60;;;-1.70;99.90;;;-1.04;94.53;94958.05;661865;211;31398;-71
2021/04/07 05:13:07;;;;;;;4.67;4.17;;;-1.60;99.90;;;-1.09;93.81;94963.84;671619;211;23477;-71
2021/04/07 05:15:36;;;;;;;5.00;4.20;;;-1.60;99.90;;;-1.04;93.58;94965.02;663415;211;32031;-71
2021/04/07 05:20:45;;;;;;;5.10;4.60;;;-1.60;99.90;;;-1.06;94.60;94978.29;650743;216;31624;-71
2021/04/07 05:23:14;;;;;;;5.40;5.00;;;-1.70;99.90;;;-1.15;97.02;94984.46;640858;221;26828;-71
2021/04/07 05:25:43;;;;;;;5.32;4.82;;;-1.80;99.90;;;-1.18;99.06;94986.00;628649;221;43052;-71
2021/04/07 05:28:12;;;;;;;5.18;4.78;;;-1.90;99.90;;;-1.27;100.00;94987.78;622505;224;31966;-71
2021/04/07 05:35:51;;;;;;;4.80;4.40;;;-2.10;99.90;;;-1.43;100.00;95006.00;648538;212;31643;-71
2021/04/07 05:38:22;;;;;;;5.13;4.80;;;-2.10;99.90;;;-1.59;100.00;95007.67;639843;221;25624;-71
2021/04/07 05:40:51;;;;;;;5.12;4.62;;;-2.10;99.90;;;-1.64;100.00;95001.05;637370;221;31909;-70
2021/04/07 05:43:20;;;;;;;5.35;4.85;;;-2.20;99.90;;;-1.55;100.00;95007.05;635078;221;32286;-71
2021/04/07 05:45:49;;;;;;;5.20;4.70;;;-2.20;99.90;;;-1.58;100.00;95014.13;635280;220;31827;-71
2021/04/07 05:48:18;;;;;;;5.00;4.50;;;-2.20;99.90;;;-1.47;100.00;95020.29;642625;221;23483;-71
2021/04/07 05:50:48;;;;;;;5.05;4.65;;;-2.10;99.90;;;-1.47;100.00;95024.28;636196;221;31738;-71
2021/04/07 05:53:17;;;;;;;5.23;4.83;;;-2.10;99.90;;;-1.41;100.00;95027.83;640011;221;23475;-71
2021/04/07 05:55:47;;;;;;;4.80;4.10;;;-2.00;99.90;;;-1.27;100.00;95035.37;635318;221;31756;-71
2021/04/07 05:58:16;;;;;;;4.60;4.20;;;-1.90;99.90;;;-1.29;100.00;95040.66;635077;221;42926;-71
2021/04/07 06:00:45;;;;;;;4.60;4.20;;;-1.90;99.90;;;-1.13;99.97;95042.41;635840;221;42852;-71
2021/04/07 06:03:14;;;;;;;4.00;3.70;;;-1.80;99.90;;;-1.20;99.88;95045.38;655480;216;24483;-71
2021/04/07 06:05:44;;;;;;;4.62;4.18;;;-1.80;99.90;;;-1.15;99.66;95049.45;664230;211;31390;-72
2021/04/07 06:08:13;;;;;;;4.82;4.43;;;-1.80;99.90;;;-1.10;99.73;95050.24;664472;211;31426;-71
2021/04/07 06:10:42;;;;;;;6.33;4.73;;;-1.70;99.90;;;-0.94;99.43;95055.82;667364;211;23402;-71
2021/04/07 06:13:11;;;;;;;5.35;4.47;;;-1.60;99.90;;;-0.87;97.84;95064.09;661524;211;31589;-72
2021/04/07 06:15:41;;;;;;;4.50;4.10;;;-1.60;99.90;;;-0.85;97.01;95068.86;637308;221;31792;-71
2021/04/07 06:18:11;;;;;;;4.60;4.20;;;-1.50;99.90;;;-0.68;96.22;95070.75;668475;211;26737;-71
2021/04/07 06:20:40;;;;;;;5.70;4.70;;;-1.40;99.90;;;-0.70;95.08;95074.66;670296;211;24427;-76
2021/04/07 06:23:10;;;;;;;4.95;4.22;;;-1.30;99.90;;;-0.77;93.53;95073.56;664191;211;31440;-75
2021/04/07 06:25:39;;;;;;;4.20;3.80;;;-1.30;99.90;;;-0.76;93.39;95080.81;661960;211;23611;-75
2021/04/07 06:28:08;;;;;;;5.00;4.30;;;-1.20;99.90;;;-0.33;92.88;95087.45;628346;224;31966;-76
2021/04/07 06:30:43;;;;;;;5.03;4.63;;;-1.10;99.90;;;-0.43;91.61;95090.09;654520;216;23445;-76
2021/04/07 06:35:53;;;;;;;4.00;3.70;;;-1.20;99.90;;;-0.54;89.59;95101.75;649082;212;31682;-76
2021/04/07 06:38:22;;;;;;;4.57;4.17;;;-1.20;99.90;;;-0.43;89.65;95112.56;639693;221;23511;-77
2021/04/07 06:40:51;;;;;;;5.00;4.60;;;-1.10;99.90;;;-0.40;89.41;95119.38;635002;221;31952;-76
2021/04/07 06:43:20;;;;;;;4.17;3.87;;;-1.10;99.90;;;-0.40;89.22;95122.19;640123;221;23466;-76
2021/04/07 06:45:49;;;;;;;6.23;4.30;;;-1.20;99.90;;;-0.52;88.64;95129.20;640390;221;26943;-76
2021/04/07 06:48:18;;;;;;;4.70;4.30;;;-1.20;99.90;;;-0.48;88.68;95135.06;638083;221;33062;-76
2021/04/07 06:50:48;;;;;;;4.30;4.00;;;-1.10;99.90;;;-0.40;87.61;95145.56;640569;221;24583;-77
2021/04/07 06:53:17;;;;;;;3.80;3.60;;;-1.10;99.90;;;-0.40;85.89;95140.46;639623;220;24569;-76
2021/04/07 06:55:46;;;;;;;4.57;4.18;;;-1.10;99.90;;;-0.33;85.02;95151.61;634497;220;31763;-76
2021/04/07 06:58:15;;;;;;;5.00;4.60;;;-1.00;99.90;;;-0.14;84.53;95151.06;639874;220;26797;-76
2021/04/07 07:00:44;;;;;;;4.20;3.80;;;-0.90;99.90;;;-0.07;84.06;95154.41;632304;221;31956;-76
2021/04/07 07:03:15;;;;;;;4.68;4.28;;;-0.70;1.00;;;0.05;83.79;95160.09;636517;221;31742;-75
2021/04/07 07:05:44;;;;;;;4.60;4.20;;;-0.70;99.90;;;-0.03;84.08;95155.91;626087;221;27731;-76
2021/04/07 07:08:14;;;;;;;3.83;3.53;;;-0.80;99.90;;;-0.10;84.24;95156.92;639397;221;24530;-76
2021/04/07 07:10:43;;;;;;;3.87;3.57;;;-0.80;99.90;;;-0.07;84.75;95160.59;640651;221;24992;-76
2021/04/07 07:13:17;;;;;;;4.10;3.80;;;-0.90;1.40;;;-0.12;84.09;95163.03;638389;221;24516;-75
2021/04/07 07:18:24;;;;;;;5.07;4.50;;;-0.70;99.90;;;0.19;83.19;95180.56;619749;222;31930;-75
2021/04/07 07:20:53;;;;;;;4.63;4.23;;;-0.50;99.90;;;0.27;82.42;95182.74;621888;229;29841;-75
2021/04/07 07:23:22;;;;;;;4.60;4.20;;;-0.60;99.90;;;0.46;82.82;95187.55;629927;225;27941;-75
2021/04/07 07:25:58;;;;;;;5.50;4.00;;;-0.30;99.90;;;0.25;82.05;95189.48;629706;224;25680;-75
2021/04/07 07:28:27;;;;;;;4.70;4.30;;;-0.30;99.90;;;0.51;81.76;95190.44;612409;229;32321;-74
2021/04/07 07:30:56;;;;;;;4.70;4.27;;;-0.20;99.90;;;0.45;79.82;95196.08;619469;229;24627;-75
2021/04/07 07:35:51;;;;;;;4.70;4.30;;;0.00;1.40;;;0.93;78.55;95200.05;646924;216;31978;-75
2021/04/07 07:38:20;;;;;;;4.63;4.30;;;0.20;99.90;;;0.99;77.60;95205.33;637393;221;23510;-75
2021/04/07 07:40:49;;;;;;;4.40;4.00;;;0.20;99.90;;;1.08;78.69;95208.30;640176;221;24522;-75
2021/04/07 07:43:18;;;;;;;5.20;4.70;;;0.10;99.90;;;0.89;79.20;95210.20;648716;216;31579;-75
2021/04/07 07:45:48;;;;;;;5.07;4.57;;;0.00;99.90;;;0.98;79.99;95212.52;662663;211;31594;-75
2021/04/07 07:48:19;;;;;;;5.50;5.00;;;-0.20;99.90;;;0.69;81.71;95211.64;669291;211;27751;-75
2021/04/07 07:50:47;;;;;;;4.90;4.50;;;-0.30;99.90;;;0.24;83.39;95225.45;667847;211;25097;-74
2021/04/07 07:53:18;;;;;;;4.53;4.07;;;-0.70;99.90;;;-0.25;88.37;95236.68;669995;211;24416;-75
2021/04/07 07:55:50;;;;;;;4.53;3.80;;;-1.20;99.90;;;-0.49;92.95;95245.80;670178;211;24424;-75
2021/04/07 07:58:27;;;;;;;3.93;3.40;;;-1.40;1.40;;;-0.47;93.46;95251.16;668167;211;24426;-75
2021/04/07 08:01:04;;;;;;;5.20;4.70;;;-1.40;1.40;;;-0.68;95.51;95256.51;668624;211;34334;-75
2021/04/07 08:03:33;;;;;;;4.50;3.80;;;-1.50;99.90;;;-0.94;96.17;95257.79;663052;211;32037;-75
2021/04/07 08:06:02;;;;;;;3.30;2.70;;;-1.80;99.90;;;-0.83;95.74;95257.91;673660;211;23385;-75
2021/04/07 08:08:32;;;;;;;3.80;3.50;;;-1.80;99.90;;;-1.03;96.17;95272.50;638075;221;24515;-75
2021/04/07 08:11:01;;;;;;;4.43;4.03;;;-2.00;1.40;;;-1.22;98.54;95290.66;635750;221;31725;-75
2021/04/07 08:13:30;;;;;;;4.30;3.90;;;-2.10;99.90;;;-1.35;100.00;95283.98;641180;221;23513;-75
2021/04/07 08:15:59;;;;;;;4.30;2.90;;;-2.20;1.40;;;-1.58;100.00;95286.12;664889;211;31583;-75
2021/04/07 08:18:28;;;;;;;3.70;3.30;;;-2.40;1.40;;;-1.45;100.00;95287.12;668982;211;23431;-75
2021/04/07 08:20:57;;;;;;;4.50;3.40;;;-2.20;99.90;;;-0.93;99.56;95283.34;667375;211;31725;-75
2021/04/07 08:23:26;;;;;;;4.57;4.17;;;-1.80;99.90;;;-0.69;96.32;95282.14;668547;211;23411;-75
2021/04/07 08:25:56;;;;;;;4.53;3.90;;;-1.40;1.40;;;-0.10;93.62;95276.69;649093;216;31669;-75
2021/04/07 08:28:25;;;;;;;4.83;4.43;;;-0.90;99.90;;;0.35;89.97;95282.98;668082;211;23405;-75
2021/04/07 08:30:54;;;;;;;4.78;4.32;;;-0.50;99.90;;;0.74;88.03;95280.78;663543;211;31331;-75
2021/04/07 08:35:51;;;;;;;4.53;4.12;;;0.40;1.40;;;1.16;83.25;95281.50;648316;212;31579;-76
2021/04/07 08:38:31;;;;;;;5.40;4.90;;;0.20;99.90;;;1.11;81.70;95282.65;644669;221;23472;-74
2021/04/07 08:41:08;;;;;;;4.47;4.10;;;0.20;99.90;;;1.03;81.62;95288.80;642390;220;24602;-74
2021/04/07 08:43:37;;;;;;;5.03;4.50;;;0.40;99.90;;;1.19;81.02;95291.79;643408;221;25587;-74
2021/04/07 08:46:16;;;;;;;6.50;4.20;;;0.60;99.90;;;1.23;77.54;95280.63;635567;220;31770;-74
2021/04/07 08:48:45;;;;;;;4.47;4.07;;;0.80;99.90;;;1.98;75.29;95293.81;633420;220;32110;-74
2021/04/07 08:51:15;;;;;;;4.80;4.40;;;1.60;1.40;;;3.00;73.49;95286.35;642233;221;23438;-74
2021/04/07 08:53:44;;;;;;;5.90;5.50;;;2.60;99.90;;;2.61;70.56;95292.24;641222;220;24530;-75
2021/04/07 08:56:13;;;;;;;3.63;3.30;;;1.70;99.90;;;1.75;72.12;95306.83;644229;220;24559;-75
2021/04/07 08:58:50;;;;;;;3.63;3.00;;;0.70;99.90;;;0.90;73.50;95305.68;639903;220;25624;-75
2021/04/07 09:01:19;;;;;;;4.00;3.37;;;0.20;99.90;;;1.90;72.37;95307.95;633471;220;42374;-76
2021/04/07 09:03:48;;;;;;;3.93;3.60;;;1.70;99.90;;;2.74;66.32;95300.67;654853;217;23434;-75
2021/04/07 09:06:18;;;;;;;3.63;3.30;;;2.80;99.90;;;2.64;66.52;95304.25;639636;220;24507;-77
2021/04/07 09:08:53;;;;;;;3.63;3.33;;;2.00;99.90;;;3.54;62.63;95303.61;669862;211;26049;-76
2021/04/07 09:11:33;;;;;;;3.20;2.97;;;4.10;99.90;;;2.12;65.51;95309.25;670887;211;31361;-76
2021/04/07 09:14:04;;;;;;;3.67;3.40;;;1.20;99.90;;;1.16;70.26;95306.70;667692;211;24534;-77
2021/04/07 09:16:34;;;;;;;3.87;3.50;;;0.20;99.90;;;0.69;77.10;95331.20;669445;211;24430;-78
2021/04/07 09:19:19;;;;;;;2.33;2.23;;;-0.30;99.90;;;0.26;81.19;95336.37;667437;211;24414;-76
2021/04/07 09:22:01;;;;;;;2.10;1.50;;;-0.70;99.90;;;-0.25;81.27;95341.30;662815;211;31988;-75
2021/04/07 09:27:25;;;;;;;2.60;2.20;;;-1.30;99.90;;;-0.67;90.81;95344.73;649432;212;31570;-76
2021/04/07 09:30:04;;;;;;;2.27;2.17;;;-1.40;99.90;;;-0.58;88.90;95348.46;644033;221;24530;-75
2021/04/07 09:32:33;;;;;;;2.30;2.10;;;-1.20;99.90;;;0.50;85.18;95352.50;637473;221;31819;-73
2021/04/07 09:35:55;;;;;;;4.10;2.80;;;0.60;1.40;;;2.57;74.87;95353.30;646797;212;31890;-75
2021/04/07 09:38:24;;;;;;;3.93;3.63;;;3.80;99.90;;;4.37;65.70;95340.27;639773;221;23933;-75
2021/04/07 09:41:04;;;;;;;3.15;2.80;;;6.00;1.40;;;6.60;58.47;95348.03;634589;221;31736;-76
2021/04/07 09:43:33;;;;;;;3.30;3.00;;;7.90;1.40;;;8.02;53.56;95349.95;643823;220;23558;-76
2021/04/07 09:46:02;;;;;;;2.50;2.30;;;8.30;1.40;;;7.93;48.26;95344.32;640183;221;24676;-77
2021/04/07 09:48:38;;;;;;;4.40;3.40;;;7.40;1.40;;;5.04;55.87;95345.09;638757;220;24498;-76
2021/04/07 09:51:16;;;;;;;3.00;2.80;;;2.70;99.90;;;3.22;63.12;95364.68;638795;221;24510;-76
2021/04/07 09:53:46;;;;;;;2.60;2.40;;;1.40;1.40;;;2.32;67.58;95376.24;641634;221;24584;-76
2021/04/07 09:56:14;;;;;;;3.30;3.10;;;0.80;1.40;;;1.57;70.90;95373.84;639672;221;24486;-76
2021/04/07 09:58:48;;;;;;;3.70;3.43;;;0.10;99.90;;;0.56;81.05;95380.89;641888;221;24525;-75
2021/04/07 10:01:17;;;;;;;2.63;2.43;;;-0.90;1.40;;;-0.27;89.98;95389.16;639167;220;24510;-75
2021/04/07 10:03:51;;;;;;;6.80;3.00;;;-1.50;99.90;;;-0.56;93.66;95385.72;638745;220;24523;-75
2021/04/07 10:06:22;;;;;;;4.30;2.77;;;-1.70;1.40;;;-0.59;95.05;95381.72;641433;220;24759;-75
2021/04/07 10:09:05;;;;;;;3.58;3.05;;;-1.60;99.90;;;-0.26;93.23;95380.97;662909;211;31452;-75
2021/04/07 10:11:38;;;;;;;3.70;3.43;;;-1.40;99.90;;;-0.19;91.68;95378.11;669879;211;23466;-75
2021/04/07 10:14:07;;;;;;;4.50;2.75;;;-1.20;99.90;;;0.52;88.54;95374.93;661268;211;31397;-75
2021/04/07 10:16:38;;;;;;;4.77;3.50;;;-0.50;99.90;;;2.77;82.29;95371.98;668418;211;23516;-76
2021/04/07 10:19:08;;;;;;;3.53;3.33;;;2.10;99.90;;;3.42;74.60;95369.41;668238;211;24726;-75
2021/04/07 10:21:37;;;;;;;4.70;3.17;;;1.80;99.90;;;6.13;65.69;95356.95;670967;211;29861;-75
2021/04/07 10:24:07;;;;;;;2.70;2.47;;;4.80;99.90;;;5.34;63.14;95371.32;668583;211;24428;-75
2021/04/07 10:26:42;;;;;;;2.78;2.50;;;3.00;99.90;;;2.75;67.58;95378.56;651405;211;31988;-76
2021/04/07 10:29:23;;;;;;;4.43;2.75;;;0.90;99.90;;;1.75;72.19;95387.10;652834;215;31597;-76
2021/04/07 10:31:55;;;;;;;3.47;3.17;;;0.40;99.90;;;1.29;74.83;95397.90;655274;215;29883;-75
2021/04/07 10:35:51;;;;;;;2.87;1.90;;;0.40;99.90;;;1.23;74.62;95389.39;646090;212;31594;-76
2021/04/07 10:38:20;;;;;;;2.60;2.40;;;0.40;99.90;;;1.83;72.76;95385.48;638077;221;23477;-77
2021/04/07 10:40:49;;;;;;;3.10;2.80;;;1.50;99.90;;;3.22;70.01;95385.25;641013;221;24552;-77
2021/04/07 10:43:18;;;;;;;2.60;2.40;;;3.30;99.90;;;5.15;61.23;95379.67;640760;221;24496;-77
2021/04/07 10:45:58;;;;;;;2.87;2.60;;;5.80;99.90;;;6.00;57.08;95377.21;642207;221;25620;-76
2021/04/07 10:48:27;;;;;;;2.37;2.17;;;6.10;99.90;;;6.13;53.41;95388.88;642179;221;24958;-75
2021/04/07 10:50:57;;;;;;;2.40;2.10;;;5.80;99.90;;;7.29;53.67;95378.98;639180;219;24508;-75
2021/04/07 10:53:38;;;;;;;2.80;2.50;;;7.00;1.00;;;7.91;51.07;95386.88;648835;219;24486;-75
2021/04/07 10:56:17;;;;;;;3.07;2.10;;;8.30;1.00;;;6.51;51.62;95397.11;641463;221;24561;-77
2021/04/07 10:58:56;;;;;;;1.83;1.73;;;4.10;1.00;;;3.58;58.11;95396.14;642990;220;24491;-77
2021/04/07 11:01:27;;;;;;;2.10;1.90;;;1.30;1.00;;;2.15;67.15;95404.03;668942;211;24413;-76
2021/04/07 11:03:56;;;;;;;2.53;2.13;;;0.70;99.90;;;1.68;69.44;95402.78;669332;211;24425;-76
2021/04/07 11:06:25;;;;;;;2.13;2.00;;;0.60;99.90;;;1.58;71.22;95399.86;667512;211;24646;-76
2021/04/07 11:08:54;;;;;;;2.90;2.70;;;1.00;99.90;;;3.11;68.40;95398.39;671000;211;24766;-76
2021/04/07 11:11:25;;;;;;;4.13;2.97;;;3.80;99.90;;;4.65;60.86;95399.92;667364;211;24399;-76
2021/04/07 11:13:53;;;;;;;2.43;2.33;;;3.50;99.90;;;3.79;62.16;95392.70;670069;211;24442;-76
2021/04/07 11:16:31;;;;;;;2.53;1.95;;;2.30;99.90;;;3.93;62.31;95399.22;661526;211;42097;-77
2021/04/07 11:19:00;;;;;;;4.13;2.10;;;4.20;99.90;;;6.50;54.10;95386.45;654996;216;23428;-76
2021/04/07 11:21:29;;;;;;;2.73;2.23;;;6.20;99.90;;;7.69;49.61;95387.13;669507;211;24424;-76